sensor_id;sensor_type;location;lat;lon;timestamp;P1;durP1;ratioP1;P2;durP2;ratioP2
22144;SDS011;11238;48.730;11.566;2023-03-31T00:01:48;4.70;;;2.63;;
22144;SDS011;11238;48.730;11.566;2023-03-31T00:04:17;5.05;;;2.40;;
22144;SDS011;11238;48.730;11.566;2023-03-31T00:06:43;6.78;;;2.90;;
22144;SDS011;11238;48.730;11.566;2023-03-31T00:09:10;5.38;;;3.15;;
22144;SDS011;11238;48.730;11.566;2023-03-31T00:11:38;5.05;;;3.00;;
22144;SDS011;11238;48.730;11.566;2023-03-31T00:14:05;7.20;;;3.55;;
22144;SDS011;11238;48.730;11.566;2023-03-31T00:16:33;8.30;;;4.05;;
22144;SDS011;11238;48.730;11.566;2023-03-31T00:19:00;5.60;;;3.10;;
22144;SDS011;11238;48.730;11.566;2023-03-31T00:21:26;4.55;;;3.45;;
22144;SDS011;11238;48.730;11.566;2023-03-31T00:24:03;8.35;;;5.68;;
22144;SDS011;11238;48.730;11.566;2023-03-31T00:26:31;12.85;;;8.55;;
22144;SDS011;11238;48.730;11.566;2023-03-31T00:28:58;11.25;;;7.82;;
22144;SDS011;11238;48.730;11.566;2023-03-31T00:31:24;12.85;;;7.65;;
22144;SDS011;11238;48.730;11.566;2023-03-31T00:33:52;11.50;;;7.03;;
22144;SDS011;11238;48.730;11.566;2023-03-31T00:36:18;12.45;;;7.75;;
22144;SDS011;11238;48.730;11.566;2023-03-31T00:38:52;12.03;;;7.77;;
22144;SDS011;11238;48.730;11.566;2023-03-31T00:41:27;9.18;;;7.30;;
22144;SDS011;11238;48.730;11.566;2023-03-31T00:44:04;11.13;;;7.45;;
22144;SDS011;11238;48.730;11.566;2023-03-31T00:47:14;7.65;;;5.50;;
22144;SDS011;11238;48.730;11.566;2023-03-31T00:49:49;8.40;;;4.07;;
22144;SDS011;11238;48.730;11.566;2023-03-31T00:52:20;7.68;;;4.07;;
22144;SDS011;11238;48.730;11.566;2023-03-31T00:54:59;9.77;;;4.53;;
22144;SDS011;11238;48.730;11.566;2023-03-31T00:57:33;6.53;;;3.47;;
22144;SDS011;11238;48.730;11.566;2023-03-31T01:00:05;6.68;;;3.35;;
22144;SDS011;11238;48.730;11.566;2023-03-31T01:02:40;10.43;;;2.90;;
22144;SDS011;11238;48.730;11.566;2023-03-31T01:05:15;10.48;;;3.00;;
22144;SDS011;11238;48.730;11.566;2023-03-31T01:08:12;3.95;;;2.83;;
22144;SDS011;11238;48.730;11.566;2023-03-31T01:10:42;6.88;;;2.90;;
22144;SDS011;11238;48.730;11.566;2023-03-31T01:13:13;7.05;;;3.15;;
22144;SDS011;11238;48.730;11.566;2023-03-31T01:15:40;5.30;;;3.30;;
22144;SDS011;11238;48.730;11.566;2023-03-31T01:18:07;4.65;;;2.97;;
22144;SDS011;11238;48.730;11.566;2023-03-31T01:20:45;7.55;;;2.92;;
22144;SDS011;11238;48.730;11.566;2023-03-31T01:24:09;7.57;;;3.25;;
22144;SDS011;11238;48.730;11.566;2023-03-31T01:38:04;7.47;;;3.55;;
22144;SDS011;11238;48.730;11.566;2023-03-31T01:41:45;4.83;;;3.60;;
22144;SDS011;11238;48.730;11.566;2023-03-31T01:43:59;5.72;;;3.40;;
22144;SDS011;11238;48.730;11.566;2023-03-31T01:47:06;7.13;;;3.13;;
22144;SDS011;11238;48.730;11.566;2023-03-31T01:49:50;5.32;;;3.53;;
22144;SDS011;11238;48.730;11.566;2023-03-31T01:52:21;4.97;;;3.20;;
22144;SDS011;11238;48.730;11.566;2023-03-31T01:57:46;5.68;;;3.30;;
22144;SDS011;11238;48.730;11.566;2023-03-31T02:00:38;5.28;;;3.50;;
22144;SDS011;11238;48.730;11.566;2023-03-31T02:03:10;6.43;;;3.20;;
22144;SDS011;11238;48.730;11.566;2023-03-31T02:05:43;6.63;;;3.10;;
22144;SDS011;11238;48.730;11.566;2023-03-31T02:08:24;6.85;;;3.30;;
22144;SDS011;11238;48.730;11.566;2023-03-31T02:10:57;5.03;;;3.25;;
22144;SDS011;11238;48.730;11.566;2023-03-31T02:13:25;4.50;;;3.25;;
22144;SDS011;11238;48.730;11.566;2023-03-31T02:15:57;3.55;;;2.95;;
22144;SDS011;11238;48.730;11.566;2023-03-31T02:18:27;5.03;;;3.53;;
22144;SDS011;11238;48.730;11.566;2023-03-31T02:20:58;3.50;;;3.10;;
22144;SDS011;11238;48.730;11.566;2023-03-31T02:23:25;7.15;;;3.22;;
22144;SDS011;11238;48.730;11.566;2023-03-31T02:25:59;5.90;;;4.10;;
22144;SDS011;11238;48.730;11.566;2023-03-31T02:28:28;8.15;;;4.22;;
22144;SDS011;11238;48.730;11.566;2023-03-31T02:33:47;5.65;;;2.72;;
22144;SDS011;11238;48.730;11.566;2023-03-31T02:36:14;4.43;;;3.35;;
22144;SDS011;11238;48.730;11.566;2023-03-31T02:38:48;5.65;;;3.55;;
22144;SDS011;11238;48.730;11.566;2023-03-31T02:41:18;5.10;;;3.15;;
22144;SDS011;11238;48.730;11.566;2023-03-31T02:43:44;4.70;;;3.25;;
22144;SDS011;11238;48.730;11.566;2023-03-31T02:46:09;4.97;;;3.30;;
22144;SDS011;11238;48.730;11.566;2023-03-31T02:48:36;4.82;;;3.25;;
22144;SDS011;11238;48.730;11.566;2023-03-31T02:56:52;6.80;;;4.00;;
22144;SDS011;11238;48.730;11.566;2023-03-31T03:02:26;10.07;;;4.60;;
22144;SDS011;11238;48.730;11.566;2023-03-31T03:05:22;6.68;;;4.32;;
22144;SDS011;11238;48.730;11.566;2023-03-31T03:11:44;5.63;;;4.78;;
22144;SDS011;11238;48.730;11.566;2023-03-31T03:14:21;8.88;;;5.07;;
22144;SDS011;11238;48.730;11.566;2023-03-31T03:17:14;9.43;;;5.03;;
22144;SDS011;11238;48.730;11.566;2023-03-31T03:19:54;7.90;;;5.10;;
22144;SDS011;11238;48.730;11.566;2023-03-31T03:22:23;12.00;;;7.00;;
22144;SDS011;11238;48.730;11.566;2023-03-31T03:24:52;6.57;;;5.63;;
22144;SDS011;11238;48.730;11.566;2023-03-31T03:27:18;7.60;;;4.50;;
22144;SDS011;11238;48.730;11.566;2023-03-31T03:29:46;5.97;;;4.00;;
22144;SDS011;11238;48.730;11.566;2023-03-31T03:32:12;9.80;;;4.47;;
22144;SDS011;11238;48.730;11.566;2023-03-31T03:34:39;8.18;;;4.53;;
22144;SDS011;11238;48.730;11.566;2023-03-31T03:37:06;7.40;;;5.22;;
22144;SDS011;11238;48.730;11.566;2023-03-31T03:39:32;8.65;;;5.20;;
22144;SDS011;11238;48.730;11.566;2023-03-31T03:41:58;9.57;;;5.18;;
22144;SDS011;11238;48.730;11.566;2023-03-31T03:44:24;11.02;;;5.25;;
22144;SDS011;11238;48.730;11.566;2023-03-31T03:46:50;10.40;;;6.30;;
22144;SDS011;11238;48.730;11.566;2023-03-31T03:49:36;10.52;;;6.53;;
22144;SDS011;11238;48.730;11.566;2023-03-31T03:52:24;9.50;;;5.85;;
22144;SDS011;11238;48.730;11.566;2023-03-31T03:55:10;12.40;;;6.18;;
22144;SDS011;11238;48.730;11.566;2023-03-31T03:57:36;9.32;;;6.22;;
22144;SDS011;11238;48.730;11.566;2023-03-31T04:00:02;14.60;;;6.20;;
22144;SDS011;11238;48.730;11.566;2023-03-31T04:02:37;13.15;;;6.28;;
22144;SDS011;11238;48.730;11.566;2023-03-31T04:05:04;15.70;;;5.80;;
22144;SDS011;11238;48.730;11.566;2023-03-31T04:07:30;13.27;;;5.95;;
22144;SDS011;11238;48.730;11.566;2023-03-31T04:10:17;12.50;;;5.75;;
22144;SDS011;11238;48.730;11.566;2023-03-31T04:12:43;10.68;;;5.50;;
22144;SDS011;11238;48.730;11.566;2023-03-31T04:15:08;12.52;;;5.35;;
22144;SDS011;11238;48.730;11.566;2023-03-31T04:17:34;11.70;;;5.65;;
22144;SDS011;11238;48.730;11.566;2023-03-31T04:20:01;11.50;;;5.80;;
22144;SDS011;11238;48.730;11.566;2023-03-31T04:22:30;13.40;;;6.18;;
22144;SDS011;11238;48.730;11.566;2023-03-31T04:25:01;13.65;;;5.43;;
22144;SDS011;11238;48.730;11.566;2023-03-31T04:27:28;18.30;;;5.97;;
22144;SDS011;11238;48.730;11.566;2023-03-31T04:29:55;11.63;;;6.28;;
22144;SDS011;11238;48.730;11.566;2023-03-31T04:32:21;14.00;;;6.82;;
22144;SDS011;11238;48.730;11.566;2023-03-31T04:34:48;13.55;;;6.85;;
22144;SDS011;11238;48.730;11.566;2023-03-31T04:37:15;14.88;;;7.10;;
22144;SDS011;11238;48.730;11.566;2023-03-31T04:39:41;13.80;;;7.25;;
22144;SDS011;11238;48.730;11.566;2023-03-31T04:42:11;15.07;;;6.93;;
22144;SDS011;11238;48.730;11.566;2023-03-31T04:44:37;16.08;;;7.40;;
22144;SDS011;11238;48.730;11.566;2023-03-31T04:47:03;19.73;;;7.95;;
22144;SDS011;11238;48.730;11.566;2023-03-31T04:49:31;18.65;;;8.38;;
22144;SDS011;11238;48.730;11.566;2023-03-31T04:51:57;15.48;;;7.75;;
22144;SDS011;11238;48.730;11.566;2023-03-31T04:54:23;14.70;;;8.40;;
22144;SDS011;11238;48.730;11.566;2023-03-31T04:56:49;18.02;;;8.48;;
22144;SDS011;11238;48.730;11.566;2023-03-31T04:59:15;17.70;;;8.20;;
22144;SDS011;11238;48.730;11.566;2023-03-31T05:01:41;18.70;;;8.00;;
22144;SDS011;11238;48.730;11.566;2023-03-31T05:04:10;14.35;;;7.72;;
22144;SDS011;11238;48.730;11.566;2023-03-31T05:06:35;19.85;;;7.53;;
22144;SDS011;11238;48.730;11.566;2023-03-31T05:09:02;15.38;;;8.35;;
22144;SDS011;11238;48.730;11.566;2023-03-31T05:11:27;34.13;;;22.77;;
22144;SDS011;11238;48.730;11.566;2023-03-31T05:13:53;15.73;;;8.55;;
22144;SDS011;11238;48.730;11.566;2023-03-31T05:16:20;19.90;;;9.48;;
22144;SDS011;11238;48.730;11.566;2023-03-31T05:18:46;20.50;;;7.55;;
22144;SDS011;11238;48.730;11.566;2023-03-31T05:21:13;20.60;;;6.95;;
22144;SDS011;11238;48.730;11.566;2023-03-31T05:23:40;13.65;;;7.10;;
22144;SDS011;11238;48.730;11.566;2023-03-31T05:26:09;12.32;;;6.97;;
22144;SDS011;11238;48.730;11.566;2023-03-31T05:28:36;13.63;;;7.20;;
22144;SDS011;11238;48.730;11.566;2023-03-31T05:31:02;16.77;;;8.18;;
22144;SDS011;11238;48.730;11.566;2023-03-31T05:33:29;18.70;;;8.25;;
22144;SDS011;11238;48.730;11.566;2023-03-31T05:35:56;31.45;;;15.35;;
22144;SDS011;11238;48.730;11.566;2023-03-31T05:38:24;22.85;;;8.95;;
22144;SDS011;11238;48.730;11.566;2023-03-31T05:40:54;16.13;;;7.70;;
22144;SDS011;11238;48.730;11.566;2023-03-31T05:43:20;15.82;;;8.18;;
22144;SDS011;11238;48.730;11.566;2023-03-31T05:45:46;16.05;;;7.95;;
22144;SDS011;11238;48.730;11.566;2023-03-31T05:48:12;14.30;;;7.60;;
22144;SDS011;11238;48.730;11.566;2023-03-31T05:50:38;16.48;;;7.25;;
22144;SDS011;11238;48.730;11.566;2023-03-31T05:53:06;15.73;;;7.18;;
22144;SDS011;11238;48.730;11.566;2023-03-31T05:55:34;19.58;;;7.25;;
22144;SDS011;11238;48.730;11.566;2023-03-31T05:58:00;15.02;;;7.05;;
22144;SDS011;11238;48.730;11.566;2023-03-31T06:00:27;12.80;;;6.72;;
22144;SDS011;11238;48.730;11.566;2023-03-31T06:02:53;14.48;;;7.30;;
22144;SDS011;11238;48.730;11.566;2023-03-31T06:05:19;13.70;;;7.38;;
22144;SDS011;11238;48.730;11.566;2023-03-31T06:07:44;16.10;;;9.27;;
22144;SDS011;11238;48.730;11.566;2023-03-31T06:10:11;28.67;;;14.32;;
22144;SDS011;11238;48.730;11.566;2023-03-31T06:12:36;17.60;;;8.43;;
22144;SDS011;11238;48.730;11.566;2023-03-31T06:15:03;17.33;;;7.78;;
22144;SDS011;11238;48.730;11.566;2023-03-31T06:17:29;17.25;;;7.85;;
22144;SDS011;11238;48.730;11.566;2023-03-31T06:19:55;14.88;;;7.60;;
22144;SDS011;11238;48.730;11.566;2023-03-31T06:22:21;20.10;;;7.10;;
22144;SDS011;11238;48.730;11.566;2023-03-31T06:24:47;13.60;;;7.22;;
22144;SDS011;11238;48.730;11.566;2023-03-31T06:27:13;16.20;;;6.75;;
22144;SDS011;11238;48.730;11.566;2023-03-31T06:29:41;14.43;;;6.97;;
22144;SDS011;11238;48.730;11.566;2023-03-31T06:32:06;19.30;;;7.13;;
22144;SDS011;11238;48.730;11.566;2023-03-31T06:34:35;12.57;;;6.78;;
22144;SDS011;11238;48.730;11.566;2023-03-31T06:37:00;17.67;;;7.22;;
22144;SDS011;11238;48.730;11.566;2023-03-31T06:39:26;12.52;;;7.07;;
22144;SDS011;11238;48.730;11.566;2023-03-31T06:41:53;16.75;;;6.53;;
22144;SDS011;11238;48.730;11.566;2023-03-31T06:44:25;10.43;;;6.50;;
22144;SDS011;11238;48.730;11.566;2023-03-31T06:46:51;13.30;;;6.32;;
22144;SDS011;11238;48.730;11.566;2023-03-31T06:49:17;15.73;;;6.72;;
22144;SDS011;11238;48.730;11.566;2023-03-31T06:51:42;13.73;;;6.38;;
22144;SDS011;11238;48.730;11.566;2023-03-31T06:54:08;15.85;;;8.43;;
22144;SDS011;11238;48.730;11.566;2023-03-31T06:56:34;14.85;;;6.95;;
22144;SDS011;11238;48.730;11.566;2023-03-31T06:59:00;17.17;;;7.32;;
22144;SDS011;11238;48.730;11.566;2023-03-31T07:01:26;23.15;;;11.93;;
22144;SDS011;11238;48.730;11.566;2023-03-31T07:03:53;23.73;;;10.32;;
22144;SDS011;11238;48.730;11.566;2023-03-31T07:06:18;14.82;;;7.13;;
22144;SDS011;11238;48.730;11.566;2023-03-31T07:08:45;16.73;;;7.93;;
22144;SDS011;11238;48.730;11.566;2023-03-31T07:11:10;16.02;;;7.50;;
22144;SDS011;11238;48.730;11.566;2023-03-31T07:13:37;15.48;;;7.75;;
22144;SDS011;11238;48.730;11.566;2023-03-31T07:16:03;12.32;;;7.05;;
22144;SDS011;11238;48.730;11.566;2023-03-31T07:18:31;19.65;;;8.02;;
22144;SDS011;11238;48.730;11.566;2023-03-31T07:20:57;16.65;;;7.65;;
22144;SDS011;11238;48.730;11.566;2023-03-31T07:23:23;23.00;;;8.38;;
22144;SDS011;11238;48.730;11.566;2023-03-31T07:25:50;20.50;;;7.95;;
22144;SDS011;11238;48.730;11.566;2023-03-31T07:28:16;20.95;;;8.43;;
22144;SDS011;11238;48.730;11.566;2023-03-31T07:30:42;23.23;;;8.20;;
22144;SDS011;11238;48.730;11.566;2023-03-31T07:33:08;17.20;;;7.85;;
22144;SDS011;11238;48.730;11.566;2023-03-31T07:35:36;23.13;;;8.40;;
22144;SDS011;11238;48.730;11.566;2023-03-31T07:38:03;23.23;;;8.93;;
22144;SDS011;11238;48.730;11.566;2023-03-31T07:40:29;19.77;;;8.98;;
22144;SDS011;11238;48.730;11.566;2023-03-31T07:42:55;21.20;;;10.85;;
22144;SDS011;11238;48.730;11.566;2023-03-31T07:45:22;17.17;;;8.77;;
22144;SDS011;11238;48.730;11.566;2023-03-31T07:47:49;16.23;;;9.50;;
22144;SDS011;11238;48.730;11.566;2023-03-31T07:50:16;17.33;;;8.38;;
22144;SDS011;11238;48.730;11.566;2023-03-31T07:52:43;17.73;;;8.50;;
22144;SDS011;11238;48.730;11.566;2023-03-31T07:55:10;20.33;;;10.40;;
22144;SDS011;11238;48.730;11.566;2023-03-31T07:57:36;22.88;;;12.05;;
22144;SDS011;11238;48.730;11.566;2023-03-31T08:00:04;20.65;;;11.13;;
22144;SDS011;11238;48.730;11.566;2023-03-31T08:02:39;21.80;;;12.27;;
22144;SDS011;11238;48.730;11.566;2023-03-31T08:05:07;29.20;;;15.32;;
22144;SDS011;11238;48.730;11.566;2023-03-31T08:07:34;26.83;;;10.45;;
22144;SDS011;11238;48.730;11.566;2023-03-31T08:10:03;19.00;;;11.52;;
22144;SDS011;11238;48.730;11.566;2023-03-31T08:12:30;22.95;;;10.15;;
22144;SDS011;11238;48.730;11.566;2023-03-31T08:14:56;48.60;;;20.75;;
22144;SDS011;11238;48.730;11.566;2023-03-31T08:17:23;21.30;;;11.55;;
22144;SDS011;11238;48.730;11.566;2023-03-31T08:19:49;13.18;;;8.40;;
22144;SDS011;11238;48.730;11.566;2023-03-31T08:22:16;16.50;;;8.40;;
22144;SDS011;11238;48.730;11.566;2023-03-31T08:24:43;17.45;;;8.20;;
22144;SDS011;11238;48.730;11.566;2023-03-31T08:27:08;17.77;;;8.93;;
22144;SDS011;11238;48.730;11.566;2023-03-31T08:29:34;13.75;;;8.77;;
22144;SDS011;11238;48.730;11.566;2023-03-31T08:32:01;22.88;;;9.43;;
22144;SDS011;11238;48.730;11.566;2023-03-31T08:34:27;19.50;;;8.73;;
22144;SDS011;11238;48.730;11.566;2023-03-31T08:36:53;18.85;;;8.57;;
22144;SDS011;11238;48.730;11.566;2023-03-31T08:39:21;16.08;;;8.73;;
22144;SDS011;11238;48.730;11.566;2023-03-31T08:41:52;13.77;;;8.00;;
22144;SDS011;11238;48.730;11.566;2023-03-31T08:47:26;15.25;;;8.68;;
22144;SDS011;11238;48.730;11.566;2023-03-31T08:50:02;12.40;;;8.05;;
22144;SDS011;11238;48.730;11.566;2023-03-31T08:52:56;17.55;;;8.65;;
22144;SDS011;11238;48.730;11.566;2023-03-31T09:12:10;22.15;;;8.15;;
22144;SDS011;11238;48.730;11.566;2023-03-31T09:20:14;14.02;;;7.40;;
22144;SDS011;11238;48.730;11.566;2023-03-31T09:22:48;11.40;;;7.55;;
22144;SDS011;11238;48.730;11.566;2023-03-31T09:25:20;15.20;;;7.45;;
22144;SDS011;11238;48.730;11.566;2023-03-31T09:27:51;13.52;;;6.88;;
22144;SDS011;11238;48.730;11.566;2023-03-31T09:30:27;12.65;;;6.72;;
22144;SDS011;11238;48.730;11.566;2023-03-31T09:33:17;16.92;;;7.28;;
22144;SDS011;11238;48.730;11.566;2023-03-31T09:35:51;11.27;;;6.70;;
22144;SDS011;11238;48.730;11.566;2023-03-31T09:38:17;13.60;;;6.65;;
22144;SDS011;11238;48.730;11.566;2023-03-31T09:40:43;11.13;;;6.20;;
22144;SDS011;11238;48.730;11.566;2023-03-31T09:43:22;10.32;;;5.75;;
22144;SDS011;11238;48.730;11.566;2023-03-31T09:45:51;9.98;;;5.30;;
22144;SDS011;11238;48.730;11.566;2023-03-31T09:48:18;9.23;;;5.65;;
22144;SDS011;11238;48.730;11.566;2023-03-31T09:50:51;11.52;;;5.40;;
22144;SDS011;11238;48.730;11.566;2023-03-31T09:53:27;9.57;;;4.38;;
22144;SDS011;11238;48.730;11.566;2023-03-31T09:56:05;7.63;;;3.97;;
22144;SDS011;11238;48.730;11.566;2023-03-31T09:58:39;5.75;;;3.75;;
22144;SDS011;11238;48.730;11.566;2023-03-31T10:01:07;7.68;;;4.00;;
22144;SDS011;11238;48.730;11.566;2023-03-31T10:03:50;3.97;;;3.22;;
22144;SDS011;11238;48.730;11.566;2023-03-31T10:06:18;6.07;;;3.13;;
22144;SDS011;11238;48.730;11.566;2023-03-31T10:11:11;3.78;;;2.40;;
22144;SDS011;11238;48.730;11.566;2023-03-31T10:13:40;8.02;;;2.75;;
22144;SDS011;11238;48.730;11.566;2023-03-31T10:16:13;4.22;;;2.03;;
22144;SDS011;11238;48.730;11.566;2023-03-31T10:18:47;3.85;;;1.92;;
22144;SDS011;11238;48.730;11.566;2023-03-31T10:21:21;4.43;;;2.25;;
22144;SDS011;11238;48.730;11.566;2023-03-31T10:23:53;3.30;;;2.08;;
22144;SDS011;11238;48.730;11.566;2023-03-31T10:26:21;3.75;;;2.00;;
22144;SDS011;11238;48.730;11.566;2023-03-31T10:28:50;3.28;;;2.13;;
22144;SDS011;11238;48.730;11.566;2023-03-31T10:31:24;4.07;;;2.00;;
22144;SDS011;11238;48.730;11.566;2023-03-31T10:33:52;4.63;;;1.60;;
22144;SDS011;11238;48.730;11.566;2023-03-31T10:36:23;5.20;;;1.85;;
22144;SDS011;11238;48.730;11.566;2023-03-31T10:38:51;3.50;;;1.40;;
22144;SDS011;11238;48.730;11.566;2023-03-31T10:41:19;3.45;;;1.70;;
22144;SDS011;11238;48.730;11.566;2023-03-31T10:43:52;3.03;;;1.50;;
22144;SDS011;11238;48.730;11.566;2023-03-31T10:46:19;3.25;;;1.60;;
22144;SDS011;11238;48.730;11.566;2023-03-31T10:48:45;3.05;;;1.08;;
22144;SDS011;11238;48.730;11.566;2023-03-31T10:53:49;3.53;;;1.63;;
22144;SDS011;11238;48.730;11.566;2023-03-31T11:01:48;4.68;;;1.50;;
22144;SDS011;11238;48.730;11.566;2023-03-31T11:04:36;3.88;;;1.23;;
22144;SDS011;11238;48.730;11.566;2023-03-31T11:07:18;4.28;;;1.40;;
22144;SDS011;11238;48.730;11.566;2023-03-31T11:10:13;2.63;;;1.23;;
22144;SDS011;11238;48.730;11.566;2023-03-31T11:13:04;2.30;;;1.02;;
22144;SDS011;11238;48.730;11.566;2023-03-31T11:15:59;4.50;;;1.30;;
22144;SDS011;11238;48.730;11.566;2023-03-31T11:18:38;2.70;;;1.15;;
22144;SDS011;11238;48.730;11.566;2023-03-31T11:21:19;5.53;;;1.10;;
22144;SDS011;11238;48.730;11.566;2023-03-31T11:23:57;1.00;;;0.80;;
22144;SDS011;11238;48.730;11.566;2023-03-31T11:43:55;5.25;;;0.90;;
22144;SDS011;11238;48.730;11.566;2023-03-31T11:51:54;6.07;;;1.08;;
22144;SDS011;11238;48.730;11.566;2023-03-31T11:54:36;2.58;;;1.00;;
22144;SDS011;11238;48.730;11.566;2023-03-31T11:57:12;1.65;;;0.90;;
22144;SDS011;11238;48.730;11.566;2023-03-31T11:59:48;1.80;;;0.90;;
22144;SDS011;11238;48.730;11.566;2023-03-31T12:02:35;3.72;;;1.17;;
22144;SDS011;11238;48.730;11.566;2023-03-31T12:05:09;3.20;;;1.00;;
22144;SDS011;11238;48.730;11.566;2023-03-31T12:07:40;3.90;;;1.08;;
22144;SDS011;11238;48.730;11.566;2023-03-31T12:10:19;1.40;;;0.98;;
22144;SDS011;11238;48.730;11.566;2023-03-31T12:17:52;1.95;;;1.02;;
22144;SDS011;11238;48.730;11.566;2023-03-31T12:20:29;3.25;;;1.02;;
22144;SDS011;11238;48.730;11.566;2023-03-31T12:23:04;3.58;;;1.30;;
22144;SDS011;11238;48.730;11.566;2023-03-31T12:25:45;4.00;;;1.15;;
22144;SDS011;11238;48.730;11.566;2023-03-31T12:28:18;3.40;;;1.02;;
22144;SDS011;11238;48.730;11.566;2023-03-31T12:30:44;6.07;;;1.33;;
22144;SDS011;11238;48.730;11.566;2023-03-31T12:33:19;2.50;;;1.10;;
22144;SDS011;11238;48.730;11.566;2023-03-31T12:38:45;3.45;;;0.90;;
22144;SDS011;11238;48.730;11.566;2023-03-31T12:41:37;2.50;;;1.10;;
22144;SDS011;11238;48.730;11.566;2023-03-31T12:44:16;3.97;;;1.08;;
22144;SDS011;11238;48.730;11.566;2023-03-31T12:47:07;4.88;;;0.90;;
22144;SDS011;11238;48.730;11.566;2023-03-31T13:03:43;2.83;;;0.90;;
22144;SDS011;11238;48.730;11.566;2023-03-31T13:11:44;3.15;;;1.10;;
22144;SDS011;11238;48.730;11.566;2023-03-31T13:14:16;2.92;;;1.05;;
22144;SDS011;11238;48.730;11.566;2023-03-31T13:16:46;2.92;;;1.00;;
22144;SDS011;11238;48.730;11.566;2023-03-31T13:19:33;5.35;;;1.10;;
22144;SDS011;11238;48.730;11.566;2023-03-31T13:22:01;4.70;;;0.77;;
22144;SDS011;11238;48.730;11.566;2023-03-31T13:24:29;7.85;;;0.85;;
22144;SDS011;11238;48.730;11.566;2023-03-31T13:26:56;3.13;;;0.95;;
22144;SDS011;11238;48.730;11.566;2023-03-31T13:29:37;3.25;;;0.88;;
22144;SDS011;11238;48.730;11.566;2023-03-31T13:32:18;2.20;;;0.82;;
22144;SDS011;11238;48.730;11.566;2023-03-31T13:34:51;5.88;;;0.80;;
22144;SDS011;11238;48.730;11.566;2023-03-31T13:38:01;2.63;;;0.80;;
22144;SDS011;11238;48.730;11.566;2023-03-31T13:43:52;3.30;;;0.90;;
22144;SDS011;11238;48.730;11.566;2023-03-31T13:46:26;1.23;;;0.60;;
22144;SDS011;11238;48.730;11.566;2023-03-31T13:51:44;2.08;;;1.00;;
22144;SDS011;11238;48.730;11.566;2023-03-31T13:56:57;1.65;;;0.70;;
22144;SDS011;11238;48.730;11.566;2023-03-31T14:00:00;2.15;;;0.70;;
22144;SDS011;11238;48.730;11.566;2023-03-31T14:02:51;3.45;;;0.80;;
22144;SDS011;11238;48.730;11.566;2023-03-31T14:05:32;1.75;;;0.80;;
22144;SDS011;11238;48.730;11.566;2023-03-31T14:08:10;2.83;;;0.88;;
22144;SDS011;11238;48.730;11.566;2023-03-31T14:11:13;1.15;;;0.60;;
22144;SDS011;11238;48.730;11.566;2023-03-31T14:13:41;2.50;;;0.70;;
22144;SDS011;11238;48.730;11.566;2023-03-31T14:16:07;0.68;;;0.60;;
22144;SDS011;11238;48.730;11.566;2023-03-31T14:18:34;1.40;;;0.73;;
22144;SDS011;11238;48.730;11.566;2023-03-31T14:21:18;3.33;;;0.80;;
22144;SDS011;11238;48.730;11.566;2023-03-31T14:34:55;4.22;;;1.23;;
22144;SDS011;11238;48.730;11.566;2023-03-31T14:37:51;3.35;;;0.73;;
22144;SDS011;11238;48.730;11.566;2023-03-31T14:40:18;2.25;;;0.98;;
22144;SDS011;11238;48.730;11.566;2023-03-31T14:42:46;1.67;;;0.60;;
22144;SDS011;11238;48.730;11.566;2023-03-31T14:45:19;2.65;;;0.90;;
22144;SDS011;11238;48.730;11.566;2023-03-31T14:47:53;3.17;;;0.98;;
22144;SDS011;11238;48.730;11.566;2023-03-31T14:50:19;2.90;;;0.80;;
22144;SDS011;11238;48.730;11.566;2023-03-31T14:52:46;3.70;;;0.88;;
22144;SDS011;11238;48.730;11.566;2023-03-31T14:55:13;2.65;;;1.00;;
22144;SDS011;11238;48.730;11.566;2023-03-31T14:57:40;2.95;;;0.90;;
22144;SDS011;11238;48.730;11.566;2023-03-31T15:00:13;4.53;;;1.20;;
22144;SDS011;11238;48.730;11.566;2023-03-31T15:02:46;2.92;;;1.10;;
22144;SDS011;11238;48.730;11.566;2023-03-31T15:05:18;3.22;;;1.23;;
22144;SDS011;11238;48.730;11.566;2023-03-31T15:07:48;3.25;;;0.90;;
22144;SDS011;11238;48.730;11.566;2023-03-31T15:10:15;3.00;;;1.25;;
22144;SDS011;11238;48.730;11.566;2023-03-31T15:12:49;2.60;;;1.10;;
22144;SDS011;11238;48.730;11.566;2023-03-31T15:15:16;3.30;;;0.90;;
22144;SDS011;11238;48.730;11.566;2023-03-31T15:17:43;3.40;;;1.10;;
22144;SDS011;11238;48.730;11.566;2023-03-31T15:23:00;4.97;;;1.27;;
22144;SDS011;11238;48.730;11.566;2023-03-31T15:25:38;3.38;;;1.00;;
22144;SDS011;11238;48.730;11.566;2023-03-31T15:28:07;4.60;;;1.20;;
22144;SDS011;11238;48.730;11.566;2023-03-31T15:30:39;3.88;;;1.08;;
22144;SDS011;11238;48.730;11.566;2023-03-31T15:33:05;4.85;;;1.17;;
22144;SDS011;11238;48.730;11.566;2023-03-31T15:35:33;5.47;;;0.93;;
22144;SDS011;11238;48.730;11.566;2023-03-31T15:38:01;4.35;;;1.20;;
22144;SDS011;11238;48.730;11.566;2023-03-31T15:40:36;3.63;;;0.90;;
22144;SDS011;11238;48.730;11.566;2023-03-31T15:43:07;2.35;;;0.98;;
22144;SDS011;11238;48.730;11.566;2023-03-31T15:45:51;3.58;;;1.13;;
22144;SDS011;11238;48.730;11.566;2023-03-31T15:50:58;4.32;;;1.20;;
22144;SDS011;11238;48.730;11.566;2023-03-31T15:53:26;3.35;;;1.02;;
22144;SDS011;11238;48.730;11.566;2023-03-31T15:55:56;7.78;;;1.55;;
22144;SDS011;11238;48.730;11.566;2023-03-31T16:01:40;3.35;;;1.08;;
22144;SDS011;11238;48.730;11.566;2023-03-31T16:04:10;5.40;;;1.25;;
22144;SDS011;11238;48.730;11.566;2023-03-31T16:06:41;8.43;;;1.50;;
22144;SDS011;11238;48.730;11.566;2023-03-31T16:12:41;4.88;;;1.27;;
22144;SDS011;11238;48.730;11.566;2023-03-31T16:15:18;3.42;;;1.35;;
22144;SDS011;11238;48.730;11.566;2023-03-31T16:17:49;4.45;;;1.20;;
22144;SDS011;11238;48.730;11.566;2023-03-31T16:20:19;3.72;;;1.02;;
22144;SDS011;11238;48.730;11.566;2023-03-31T16:22:51;5.60;;;1.15;;
22144;SDS011;11238;48.730;11.566;2023-03-31T16:25:20;4.85;;;1.20;;
22144;SDS011;11238;48.730;11.566;2023-03-31T16:27:49;3.67;;;1.20;;
22144;SDS011;11238;48.730;11.566;2023-03-31T16:30:20;2.03;;;0.98;;
22144;SDS011;11238;48.730;11.566;2023-03-31T16:32:57;1.48;;;1.02;;
22144;SDS011;11238;48.730;11.566;2023-03-31T16:35:41;2.92;;;1.15;;
22144;SDS011;11238;48.730;11.566;2023-03-31T16:38:10;4.63;;;1.20;;
22144;SDS011;11238;48.730;11.566;2023-03-31T16:40:58;3.45;;;1.10;;
22144;SDS011;11238;48.730;11.566;2023-03-31T16:43:28;2.70;;;1.25;;
22144;SDS011;11238;48.730;11.566;2023-03-31T16:45:56;0.88;;;0.85;;
22144;SDS011;11238;48.730;11.566;2023-03-31T16:48:24;4.22;;;1.00;;
22144;SDS011;11238;48.730;11.566;2023-03-31T16:50:52;1.98;;;0.95;;
22144;SDS011;11238;48.730;11.566;2023-03-31T16:53:23;1.85;;;1.05;;
22144;SDS011;11238;48.730;11.566;2023-03-31T16:55:51;1.95;;;0.88;;
22144;SDS011;11238;48.730;11.566;2023-03-31T16:58:18;1.23;;;0.75;;
22144;SDS011;11238;48.730;11.566;2023-03-31T17:00:44;2.58;;;0.90;;
22144;SDS011;11238;48.730;11.566;2023-03-31T17:03:11;2.42;;;0.75;;
22144;SDS011;11238;48.730;11.566;2023-03-31T17:05:43;1.33;;;0.80;;
22144;SDS011;11238;48.730;11.566;2023-03-31T17:08:10;2.10;;;0.98;;
22144;SDS011;11238;48.730;11.566;2023-03-31T17:10:37;3.22;;;1.10;;
22144;SDS011;11238;48.730;11.566;2023-03-31T17:13:04;3.05;;;0.98;;
22144;SDS011;11238;48.730;11.566;2023-03-31T17:15:31;3.70;;;1.20;;
22144;SDS011;11238;48.730;11.566;2023-03-31T17:17:59;4.00;;;1.05;;
22144;SDS011;11238;48.730;11.566;2023-03-31T17:20:25;4.75;;;1.20;;
22144;SDS011;11238;48.730;11.566;2023-03-31T17:22:50;4.80;;;1.30;;